createdAt,value
2023-03-20T00:01:33.512Z,8.38
2023-03-20T00:04:21.376Z,8.34
2023-03-20T00:07:12.476Z,8.28
2023-03-20T00:10:01.208Z,8.22
2023-03-20T00:12:51.816Z,8.18
2023-03-20T00:15:43.540Z,8.16
2023-03-20T00:18:33.123Z,8.12
2023-03-20T00:21:21.452Z,8.08
2023-03-20T00:24:09.832Z,8.07
2023-03-20T00:26:57.864Z,8.07
2023-03-20T00:29:46.521Z,8.08
2023-03-20T00:32:37.501Z,8.09
2023-03-20T00:35:29.518Z,8.00
2023-03-20T00:38:17.351Z,7.95
2023-03-20T00:41:20.402Z,7.94
2023-03-20T00:44:19.472Z,7.98
2023-03-20T00:47:13.949Z,8.09
2023-03-20T00:50:03.048Z,8.02
2023-03-20T00:52:52.810Z,8.04
2023-03-20T00:55:41.694Z,7.94
2023-03-20T00:58:29.600Z,7.88
2023-03-20T01:01:18.155Z,7.85
2023-03-20T01:04:13.911Z,7.82
2023-03-20T01:07:02.269Z,8.00
2023-03-20T01:09:52.676Z,8.05
2023-03-20T01:12:41.835Z,8.01
2023-03-20T01:15:34.135Z,7.96
2023-03-20T01:18:24.344Z,7.85
2023-03-20T01:21:12.974Z,7.85
2023-03-20T01:24:00.941Z,7.90
2023-03-20T01:26:51.710Z,7.97
2023-03-20T01:29:39.581Z,7.93
2023-03-20T01:32:27.650Z,8.00
2023-03-20T01:35:18.278Z,7.92
2023-03-20T01:38:12.622Z,7.83
2023-03-20T01:41:05.350Z,7.88
2023-03-20T01:43:55.253Z,7.84
2023-03-20T01:46:43.759Z,7.84
2023-03-20T01:50:23.311Z,7.87
2023-03-20T01:53:16.620Z,7.86
2023-03-20T01:56:04.365Z,7.90
2023-03-20T01:58:59.560Z,7.90
2023-03-20T02:01:47.906Z,7.96
2023-03-20T02:04:42.820Z,7.99
2023-03-20T02:07:31.864Z,7.89
2023-03-20T02:10:20.369Z,7.88
2023-03-20T02:13:10.990Z,7.91
2023-03-20T02:16:05.907Z,7.89
2023-03-20T02:18:56.237Z,7.90
2023-03-20T02:22:17.808Z,7.91
2023-03-20T02:26:02.667Z,7.90
2023-03-20T02:29:29.858Z,7.89
2023-03-20T02:33:00.581Z,7.89
2023-03-20T02:36:27.222Z,7.93
2023-03-20T02:39:48.065Z,7.92
2023-03-20T02:42:41.602Z,7.89
2023-03-20T02:45:31.619Z,7.90
2023-03-20T02:48:32.970Z,7.89
2023-03-20T02:51:30.687Z,7.90
2023-03-20T02:54:25.602Z,7.86
2023-03-20T02:57:23.363Z,7.89
2023-03-20T03:00:15.453Z,7.86
2023-03-20T03:03:10.952Z,7.84
2023-03-20T03:06:03.491Z,7.81
2023-03-20T03:08:56.893Z,7.92
2023-03-20T03:11:46.591Z,7.79
2023-03-20T03:14:42.009Z,7.81
2023-03-20T03:17:34.304Z,7.81
2023-03-20T03:20:27.862Z,7.84
2023-03-20T03:23:24.393Z,7.83
2023-03-20T03:26:19.694Z,7.83
2023-03-20T03:29:14.786Z,7.83
2023-03-20T03:32:08.986Z,7.80
2023-03-20T03:34:57.984Z,7.81
2023-03-20T03:37:57.022Z,7.81
2023-03-20T03:40:51.143Z,7.79
2023-03-20T03:43:47.324Z,7.78
2023-03-20T03:46:44.788Z,7.76
2023-03-20T03:49:37.739Z,7.83
2023-03-20T03:52:27.583Z,7.69
2023-03-20T03:55:19.898Z,7.63
2023-03-20T03:58:12.821Z,7.61
2023-03-20T04:01:03.933Z,7.57
2023-03-20T04:03:54.889Z,7.56
2023-03-20T04:06:46.672Z,7.46
2023-03-20T04:09:34.629Z,7.45
2023-03-20T04:12:36.278Z,7.35
2023-03-20T04:15:24.077Z,7.31
2023-03-20T04:18:17.904Z,7.27
2023-03-20T04:21:06.748Z,7.25
2023-03-20T04:23:55.911Z,7.22
2023-03-20T04:26:44.139Z,7.19
2023-03-20T04:29:31.844Z,7.15
2023-03-20T04:32:19.927Z,7.13
2023-03-20T04:35:08.733Z,7.05
2023-03-20T04:37:56.857Z,7.02
2023-03-20T04:40:47.686Z,6.99
2023-03-20T04:43:38.122Z,6.97
2023-03-20T04:46:26.323Z,6.90
2023-03-20T04:49:14.716Z,6.88
2023-03-20T04:52:03.227Z,6.86
2023-03-20T04:54:51.149Z,6.84
2023-03-20T04:57:40.973Z,6.82
2023-03-20T05:00:28.745Z,6.80
2023-03-20T05:03:16.841Z,6.78
2023-03-20T05:06:04.921Z,6.78
2023-03-20T05:08:52.509Z,6.77
2023-03-20T05:11:40.608Z,6.87
2023-03-20T05:14:29.752Z,6.76
2023-03-20T05:17:18.345Z,6.74
2023-03-20T05:20:07.725Z,6.74
2023-03-20T05:22:55.673Z,6.76
2023-03-20T05:25:43.684Z,6.77
2023-03-20T05:28:32.130Z,6.85
2023-03-20T05:31:21.434Z,6.83
2023-03-20T05:34:09.448Z,6.83
2023-03-20T05:36:57.354Z,6.91
2023-03-20T05:39:45.486Z,7.01
2023-03-20T05:42:33.544Z,7.00
2023-03-20T05:45:21.601Z,7.09
2023-03-20T05:48:10.804Z,7.05
2023-03-20T05:51:01.241Z,7.04
2023-03-20T05:53:48.934Z,7.10
2023-03-20T05:56:37.253Z,7.19
2023-03-20T05:59:25.403Z,7.17
2023-03-20T06:02:14.407Z,7.21
2023-03-20T06:05:03.379Z,7.08
2023-03-20T06:07:51.128Z,7.15
2023-03-20T06:10:39.228Z,7.22
2023-03-20T06:13:27.267Z,7.21
2023-03-20T06:16:15.417Z,7.24
2023-03-20T06:19:03.364Z,7.29
2023-03-20T06:21:52.679Z,7.30
2023-03-20T06:24:41.129Z,7.27
2023-03-20T06:27:29.037Z,7.27
2023-03-20T06:30:18.232Z,7.29
2023-03-20T06:33:07.515Z,7.36
2023-03-20T06:35:55.465Z,7.37
2023-03-20T06:38:44.965Z,7.40
2023-03-20T06:41:34.953Z,7.50
2023-03-20T06:44:23.382Z,7.58
2023-03-20T06:47:11.302Z,7.64
2023-03-20T06:49:59.170Z,7.66
2023-03-20T06:52:47.454Z,7.69
2023-03-20T06:55:37.679Z,7.72
2023-03-20T06:58:25.817Z,7.75
2023-03-20T07:01:14.352Z,7.77
2023-03-20T07:04:02.464Z,7.80
2023-03-20T07:06:50.437Z,7.84
2023-03-20T07:09:38.458Z,7.88
2023-03-20T07:12:29.044Z,7.97
2023-03-20T07:15:17.103Z,8.02
2023-03-20T07:18:05.244Z,8.05
2023-03-20T07:20:53.489Z,8.09
2023-03-20T07:23:41.598Z,8.07
2023-03-20T07:26:30.280Z,8.20
2023-03-20T07:29:19.405Z,8.25
2023-03-20T07:32:07.513Z,8.29
2023-03-20T07:34:55.196Z,8.37
2023-03-20T07:37:43.345Z,8.39
2023-03-20T07:40:31.099Z,8.44
2023-03-20T07:43:19.408Z,8.50
2023-03-20T07:46:10.284Z,8.60
2023-03-20T07:48:58.297Z,8.53
2023-03-20T07:51:46.644Z,8.66
2023-03-20T07:54:34.699Z,8.72
2023-03-20T07:57:22.364Z,8.82
2023-03-20T08:00:11.897Z,8.86
2023-03-20T08:03:01.165Z,8.92
2023-03-20T08:05:48.944Z,8.97
2023-03-20T08:08:36.910Z,9.05
2023-03-20T08:11:27.808Z,9.09
2023-03-20T08:14:16.013Z,9.20
2023-03-20T08:17:14.532Z,9.22
2023-03-20T08:20:07.235Z,9.34
2023-03-20T08:22:54.892Z,9.45
2023-03-20T08:25:42.781Z,9.44
2023-03-20T08:28:46.684Z,9.61
2023-03-20T08:31:35.607Z,9.64
2023-03-20T08:34:24.177Z,9.75
2023-03-20T08:37:13.933Z,9.88
2023-03-20T08:40:02.251Z,9.99
2023-03-20T08:42:50.044Z,10.08
2023-03-20T08:45:38.411Z,10.13
2023-03-20T08:48:27.002Z,10.27
2023-03-20T08:51:15.084Z,10.41
2023-03-20T08:54:04.263Z,10.48
2023-03-20T08:56:52.358Z,10.61
2023-03-20T08:59:40.186Z,10.76
2023-03-20T09:02:28.396Z,10.89
2023-03-20T09:05:16.282Z,10.93
2023-03-20T09:08:04.041Z,11.10
2023-03-20T09:10:53.669Z,11.26
2023-03-20T09:13:41.505Z,11.37
2023-03-20T09:16:29.799Z,11.49
2023-03-20T09:19:19.984Z,11.60
2023-03-20T09:22:08.009Z,11.67
2023-03-20T09:24:55.857Z,11.82
2023-03-20T09:27:45.502Z,11.85
2023-03-20T09:30:33.485Z,11.86
2023-03-20T09:33:21.371Z,11.98
2023-03-20T09:36:11.709Z,11.99
2023-03-20T09:38:59.879Z,12.06
2023-03-20T09:41:57.194Z,12.16
2023-03-20T09:44:56.822Z,12.19
2023-03-20T09:47:54.346Z,12.24
2023-03-20T09:50:47.939Z,12.28
2023-03-20T09:53:40.095Z,12.39
2023-03-20T09:56:30.939Z,12.37
2023-03-20T09:59:21.392Z,12.44
2023-03-20T10:02:19.743Z,12.29
2023-03-20T10:05:20.657Z,12.39
2023-03-20T10:08:15.686Z,12.45
2023-03-20T10:11:16.855Z,12.49
2023-03-20T10:14:22.475Z,12.56
2023-03-20T10:17:22.770Z,12.55
2023-03-20T10:20:23.650Z,12.51
2023-03-20T10:23:21.968Z,12.65
2023-03-20T10:26:13.378Z,12.68
2023-03-20T10:29:03.625Z,12.76
2023-03-20T10:31:58.481Z,12.76
2023-03-20T10:34:58.415Z,12.76
2023-03-20T10:38:01.436Z,12.85
2023-03-20T10:40:49.936Z,12.93
2023-03-20T10:43:41.580Z,12.94
2023-03-20T10:46:34.248Z,12.98
2023-03-20T10:49:37.776Z,13.03
2023-03-20T10:52:29.876Z,13.01
2023-03-20T10:55:20.821Z,13.10
2023-03-20T10:58:19.271Z,13.07
2023-03-20T11:01:08.184Z,13.15
2023-03-20T11:03:56.448Z,13.24
2023-03-20T11:06:51.577Z,13.31
2023-03-20T11:09:40.826Z,13.37
2023-03-20T11:12:34.283Z,13.32
2023-03-20T11:15:26.358Z,13.35
2023-03-20T11:18:17.899Z,13.42
2023-03-20T11:21:05.917Z,13.51
2023-03-20T11:23:55.399Z,13.59
2023-03-20T11:26:45.283Z,13.65
2023-03-20T11:29:35.252Z,13.66
2023-03-20T11:32:30.273Z,13.76
2023-03-20T11:35:23.898Z,13.79
2023-03-20T11:38:16.747Z,13.83
2023-03-20T11:41:17.717Z,13.89
2023-03-20T11:44:25.717Z,13.94
2023-03-20T11:47:16.302Z,14.03
2023-03-20T11:50:06.611Z,14.15
2023-03-20T11:52:55.084Z,14.27
2023-03-20T11:55:45.168Z,14.28
2023-03-20T11:58:33.152Z,14.33
2023-03-20T12:01:23.280Z,14.42
2023-03-20T12:04:14.121Z,14.44
2023-03-20T12:07:11.170Z,14.54
2023-03-20T12:10:02.529Z,14.62
2023-03-20T12:12:55.202Z,14.72
2023-03-20T12:15:45.287Z,14.82
2023-03-20T12:18:40.039Z,14.89
2023-03-20T12:21:36.771Z,14.84
2023-03-20T12:24:34.627Z,15.00
2023-03-20T12:27:29.998Z,15.11
2023-03-20T12:30:23.992Z,15.03
2023-03-20T12:33:18.207Z,15.15
2023-03-20T12:36:14.617Z,15.33
2023-03-20T12:39:05.234Z,15.44
2023-03-20T12:42:07.247Z,15.45
2023-03-20T12:45:00.912Z,15.38
2023-03-20T12:48:10.967Z,15.54
2023-03-20T12:51:07.035Z,15.57
2023-03-20T12:54:13.719Z,15.58
2023-03-20T12:57:11.894Z,15.53
2023-03-20T13:00:16.727Z,15.53
2023-03-20T13:03:24.325Z,15.53
2023-03-20T13:06:16.846Z,15.43
2023-03-20T13:09:30.416Z,15.49
2023-03-20T13:12:28.578Z,15.37
2023-03-20T13:15:30.386Z,15.31
2023-03-20T13:18:23.492Z,15.32
2023-03-20T13:21:18.299Z,15.31
2023-03-20T13:24:27.801Z,15.31
2023-03-20T13:27:28.570Z,15.35
2023-03-20T13:30:26.110Z,15.38
2023-03-20T13:33:27.197Z,15.36
2023-03-20T13:36:26.330Z,15.37
2023-03-20T13:39:19.529Z,15.42
2023-03-20T13:42:14.943Z,15.37
2023-03-20T13:45:08.370Z,15.44
2023-03-20T13:47:57.603Z,15.34
2023-03-20T13:50:50.786Z,15.22
2023-03-20T13:53:43.866Z,15.25
2023-03-20T13:56:41.767Z,15.15
2023-03-20T13:59:47.756Z,15.16
2023-03-20T14:02:46.269Z,15.07
2023-03-20T14:05:39.697Z,15.03
2023-03-20T14:08:36.924Z,14.99
2023-03-20T14:11:35.115Z,14.99
2023-03-20T14:14:28.691Z,14.90
2023-03-20T14:17:23.052Z,14.83
2023-03-20T14:20:14.976Z,14.64
2023-03-20T14:23:04.793Z,14.69
2023-03-20T14:25:56.258Z,14.64
2023-03-20T14:28:55.950Z,14.70
2023-03-20T14:31:45.230Z,14.70
2023-03-20T14:34:47.571Z,14.67
2023-03-20T14:37:40.361Z,14.64
2023-03-20T14:40:32.605Z,14.61
2023-03-20T14:43:34.269Z,14.43
2023-03-20T14:46:28.404Z,14.48
2023-03-20T14:49:31.057Z,14.50
2023-03-20T14:52:35.329Z,14.50
2023-03-20T14:55:35.716Z,14.47
2023-03-20T14:58:58.058Z,14.33
2023-03-20T15:01:49.357Z,14.39
2023-03-20T15:04:40.588Z,14.40
2023-03-20T15:07:32.493Z,14.31
2023-03-20T15:10:23.104Z,14.28
2023-03-20T15:13:11.337Z,14.26
2023-03-20T15:16:06.947Z,14.28
2023-03-20T15:18:56.241Z,14.26
2023-03-20T15:21:48.099Z,14.18
2023-03-20T15:24:37.423Z,14.19
2023-03-20T15:27:29.545Z,14.19
2023-03-20T15:30:19.711Z,14.12
2023-03-20T15:33:09.200Z,14.11
2023-03-20T15:35:57.747Z,14.09
2023-03-20T15:38:46.870Z,14.08
2023-03-20T15:41:39.109Z,14.06
2023-03-20T15:44:28.699Z,14.01
2023-03-20T15:47:20.828Z,14.02
2023-03-20T15:50:15.822Z,13.96
2023-03-20T15:53:05.334Z,13.85
2023-03-20T15:56:16.856Z,13.90
2023-03-20T15:59:07.500Z,13.86
2023-03-20T16:01:59.894Z,13.89
2023-03-20T16:04:49.864Z,13.76
2023-03-20T16:07:37.734Z,13.81
2023-03-20T16:10:31.464Z,13.81
2023-03-20T16:13:19.465Z,13.78
2023-03-20T16:16:13.086Z,13.78
2023-03-20T16:19:01.153Z,13.57
2023-03-20T16:21:52.702Z,13.60
2023-03-20T16:24:41.897Z,13.65
2023-03-20T16:27:33.388Z,13.62
2023-03-20T16:30:25.198Z,13.58
2023-03-20T16:33:18.214Z,13.52
2023-03-20T16:36:06.506Z,13.47
2023-03-20T16:38:59.802Z,13.41
2023-03-20T16:41:50.286Z,13.36
2023-03-20T16:44:39.555Z,13.32
2023-03-20T16:47:36.427Z,13.27
2023-03-20T16:50:36.572Z,13.13
2023-03-20T16:53:24.992Z,13.06
2023-03-20T16:56:15.592Z,13.03
2023-03-20T16:59:09.529Z,12.96
2023-03-20T17:02:01.653Z,12.91
2023-03-20T17:04:50.697Z,12.82
2023-03-20T17:07:39.762Z,12.72
2023-03-20T17:10:29.776Z,12.64
2023-03-20T17:13:17.763Z,12.58
2023-03-20T17:16:06.458Z,12.52
2023-03-20T17:19:05.620Z,12.46
2023-03-20T17:21:53.660Z,12.38
2023-03-20T17:24:42.714Z,12.31
2023-03-20T17:27:31.602Z,12.22
2023-03-20T17:30:21.802Z,12.11
2023-03-20T17:33:14.903Z,12.03
2023-03-20T17:36:02.855Z,11.91
2023-03-20T17:38:51.066Z,11.81
2023-03-20T17:41:40.700Z,11.70
2023-03-20T17:44:28.592Z,11.62
2023-03-20T17:47:18.220Z,11.55
2023-03-20T17:50:10.206Z,11.45
2023-03-20T17:52:58.064Z,11.40
2023-03-20T17:55:45.776Z,11.32
2023-03-20T17:58:35.296Z,11.25
2023-03-20T18:01:23.142Z,11.15
2023-03-20T18:04:10.973Z,11.07
2023-03-20T18:06:59.530Z,10.98
2023-03-20T18:09:49.183Z,10.89
2023-03-20T18:12:38.368Z,10.81
2023-03-20T18:15:28.048Z,10.73
2023-03-20T18:18:20.899Z,10.64
2023-03-20T18:21:12.401Z,10.55
2023-03-20T18:24:00.346Z,10.47
2023-03-20T18:26:48.403Z,10.39
2023-03-20T18:29:36.342Z,10.32
2023-03-20T18:32:25.655Z,10.21
2023-03-20T18:35:14.019Z,10.14
2023-03-20T18:38:02.040Z,10.06
2023-03-20T18:40:50.799Z,10.01
2023-03-20T18:43:39.222Z,9.93
2023-03-20T18:46:28.682Z,9.85
2023-03-20T18:49:19.039Z,9.76
2023-03-20T18:52:07.440Z,9.70
2023-03-20T18:54:55.239Z,9.65
2023-03-20T18:57:43.964Z,9.58
2023-03-20T19:00:37.778Z,9.52
2023-03-20T19:03:28.512Z,9.48
2023-03-20T19:06:20.496Z,9.40
2023-03-20T19:09:15.450Z,9.37
2023-03-20T19:12:03.255Z,9.33
2023-03-20T19:14:53.538Z,9.28
2023-03-20T19:17:41.285Z,9.23
2023-03-20T19:20:34.393Z,9.20
2023-03-20T19:23:24.999Z,9.21
2023-03-20T19:26:18.022Z,9.17
2023-03-20T19:29:09.052Z,9.17
2023-03-20T19:31:58.645Z,9.13
2023-03-20T19:37:54.581Z,9.08
2023-03-20T19:40:47.051Z,9.08
2023-03-20T19:43:49.731Z,9.06
2023-03-20T19:46:41.789Z,9.07
2023-03-20T19:49:32.923Z,9.05
2023-03-20T19:52:30.282Z,9.03
2023-03-20T19:55:18.380Z,9.01
2023-03-20T19:58:08.616Z,9.00
2023-03-20T20:00:58.958Z,8.99
2023-03-20T20:03:48.157Z,8.99
2023-03-20T20:06:39.554Z,8.96
2023-03-20T20:09:28.647Z,8.95
2023-03-20T20:12:17.258Z,8.99
2023-03-20T20:15:07.840Z,8.98
2023-03-20T20:17:55.744Z,8.95
2023-03-20T20:21:24.611Z,8.94
2023-03-20T20:23:52.060Z,8.92
2023-03-20T20:26:51.178Z,8.90
2023-03-20T20:29:41.679Z,8.89
2023-03-20T20:32:31.800Z,8.87
2023-03-20T20:35:47.445Z,8.86
2023-03-20T20:38:48.713Z,8.85
2023-03-20T20:41:37.846Z,8.84
2023-03-20T20:44:25.816Z,8.85
2023-03-20T20:47:14.435Z,8.85
2023-03-20T20:50:04.361Z,8.84
2023-03-20T20:52:53.741Z,8.84
2023-03-20T20:55:42.226Z,8.82
2023-03-20T20:58:30.284Z,8.85
2023-03-20T21:01:18.261Z,8.85
2023-03-20T21:04:06.503Z,8.89
2023-03-20T21:07:09.301Z,8.90
2023-03-20T21:09:58.508Z,8.88
2023-03-20T21:12:58.464Z,8.89
2023-03-20T21:15:47.160Z,8.91
2023-03-20T21:18:35.466Z,8.88
2023-03-20T21:21:23.609Z,8.88
2023-03-20T21:24:30.914Z,8.91
2023-03-20T21:27:21.596Z,8.92
2023-03-20T21:30:10.514Z,8.90
2023-03-20T21:32:58.567Z,8.88
2023-03-20T21:35:46.911Z,8.85
2023-03-20T21:39:06.058Z,8.84
2023-03-20T21:41:43.957Z,8.81
2023-03-20T21:45:13.281Z,8.78
2023-03-20T21:51:26.254Z,8.70
2023-03-20T21:54:48.530Z,8.64
2023-03-20T21:57:42.600Z,8.61
2023-03-20T22:03:50.501Z,8.53
2023-03-20T22:10:18.629Z,8.45
2023-03-20T22:29:20.784Z,8.22
2023-03-20T22:35:33.227Z,8.13
2023-03-20T22:38:41.337Z,8.09
2023-03-20T22:44:53.019Z,8.01
2023-03-20T22:47:19.020Z,7.98
2023-03-20T22:50:07.450Z,7.94
2023-03-20T22:52:55.680Z,7.92
2023-03-20T22:55:45.547Z,7.92
2023-03-20T22:58:33.578Z,7.90
2023-03-20T23:01:22.906Z,7.88
2023-03-20T23:04:10.731Z,7.87
2023-03-20T23:06:58.559Z,7.85
2023-03-20T23:09:48.029Z,7.84
2023-03-20T23:12:41.242Z,7.83
2023-03-20T23:15:31.134Z,7.81
2023-03-20T23:18:20.868Z,7.81
2023-03-20T23:21:09.906Z,7.79
2023-03-20T23:23:57.487Z,7.79
2023-03-20T23:26:45.644Z,7.77
2023-03-20T23:29:33.551Z,7.77
2023-03-20T23:32:21.669Z,7.78
2023-03-20T23:35:11.513Z,7.77
2023-03-20T23:37:59.132Z,7.76
2023-03-20T23:40:50.632Z,7.75
2023-03-20T23:43:39.159Z,7.73
2023-03-20T23:46:26.878Z,7.72
2023-03-20T23:49:14.419Z,7.69
2023-03-20T23:52:03.548Z,7.68
2023-03-20T23:54:51.293Z,7.67
2023-03-20T23:57:39.235Z,7.66
